sensor_id;sensor_type;location;lat;lon;timestamp;P1;durP1;ratioP1;P2;durP2;ratioP2
26620;SDS011;14253;44.840;10.444;2023-04-24T00:00:56;4.10;;;2.67;;
26620;SDS011;14253;44.840;10.444;2023-04-24T00:03:22;4.55;;;2.60;;
26620;SDS011;14253;44.840;10.444;2023-04-24T00:05:49;3.85;;;2.30;;
26620;SDS011;14253;44.840;10.444;2023-04-24T00:08:16;6.10;;;2.45;;
26620;SDS011;14253;44.840;10.444;2023-04-24T00:10:43;5.63;;;2.67;;
26620;SDS011;14253;44.840;10.444;2023-04-24T00:13:09;7.75;;;2.72;;
26620;SDS011;14253;44.840;10.444;2023-04-24T00:15:35;4.43;;;2.22;;
26620;SDS011;14253;44.840;10.444;2023-04-24T00:18:01;3.13;;;2.28;;
26620;SDS011;14253;44.840;10.444;2023-04-24T00:20:27;5.32;;;2.70;;
26620;SDS011;14253;44.840;10.444;2023-04-24T00:22:54;4.97;;;2.50;;
26620;SDS011;14253;44.840;10.444;2023-04-24T00:25:21;4.78;;;2.72;;
26620;SDS011;14253;44.840;10.444;2023-04-24T00:27:47;5.45;;;2.50;;
26620;SDS011;14253;44.840;10.444;2023-04-24T00:30:13;6.72;;;3.45;;
26620;SDS011;14253;44.840;10.444;2023-04-24T00:32:39;5.82;;;2.88;;
26620;SDS011;14253;44.840;10.444;2023-04-24T00:35:05;7.78;;;2.88;;
26620;SDS011;14253;44.840;10.444;2023-04-24T00:37:31;7.07;;;3.53;;
26620;SDS011;14253;44.840;10.444;2023-04-24T00:39:57;6.47;;;3.65;;
26620;SDS011;14253;44.840;10.444;2023-04-24T00:42:23;6.68;;;3.75;;
26620;SDS011;14253;44.840;10.444;2023-04-24T00:44:50;7.60;;;3.58;;
26620;SDS011;14253;44.840;10.444;2023-04-24T00:47:16;8.07;;;3.95;;
26620;SDS011;14253;44.840;10.444;2023-04-24T00:49:45;4.65;;;3.72;;
26620;SDS011;14253;44.840;10.444;2023-04-24T00:52:11;8.95;;;4.82;;
26620;SDS011;14253;44.840;10.444;2023-04-24T00:54:37;8.95;;;4.10;;
26620;SDS011;14253;44.840;10.444;2023-04-24T00:57:03;7.65;;;4.55;;
26620;SDS011;14253;44.840;10.444;2023-04-24T00:59:30;9.48;;;5.00;;
26620;SDS011;14253;44.840;10.444;2023-04-24T01:01:57;10.15;;;5.78;;
26620;SDS011;14253;44.840;10.444;2023-04-24T01:04:23;10.07;;;5.88;;
26620;SDS011;14253;44.840;10.444;2023-04-24T01:06:51;8.70;;;5.53;;
26620;SDS011;14253;44.840;10.444;2023-04-24T01:09:18;8.63;;;5.32;;
26620;SDS011;14253;44.840;10.444;2023-04-24T01:11:46;7.22;;;5.05;;
26620;SDS011;14253;44.840;10.444;2023-04-24T01:14:12;11.82;;;6.25;;
26620;SDS011;14253;44.840;10.444;2023-04-24T01:16:38;10.75;;;6.53;;
26620;SDS011;14253;44.840;10.444;2023-04-24T01:19:07;10.27;;;6.40;;
26620;SDS011;14253;44.840;10.444;2023-04-24T01:21:37;8.40;;;6.80;;
26620;SDS011;14253;44.840;10.444;2023-04-24T01:24:04;11.00;;;6.93;;
26620;SDS011;14253;44.840;10.444;2023-04-24T01:26:30;10.73;;;7.78;;
26620;SDS011;14253;44.840;10.444;2023-04-24T01:28:57;15.27;;;6.40;;
26620;SDS011;14253;44.840;10.444;2023-04-24T01:31:23;10.32;;;7.00;;
26620;SDS011;14253;44.840;10.444;2023-04-24T01:33:49;9.93;;;6.85;;
26620;SDS011;14253;44.840;10.444;2023-04-24T01:36:16;9.82;;;7.93;;
26620;SDS011;14253;44.840;10.444;2023-04-24T01:38:44;11.10;;;7.75;;
26620;SDS011;14253;44.840;10.444;2023-04-24T01:41:10;11.10;;;8.05;;
26620;SDS011;14253;44.840;10.444;2023-04-24T01:43:36;9.43;;;7.55;;
26620;SDS011;14253;44.840;10.444;2023-04-24T01:46:02;11.55;;;8.07;;
26620;SDS011;14253;44.840;10.444;2023-04-24T01:48:28;12.18;;;8.52;;
26620;SDS011;14253;44.840;10.444;2023-04-24T01:50:56;11.27;;;8.55;;
26620;SDS011;14253;44.840;10.444;2023-04-24T01:53:22;17.15;;;10.02;;
26620;SDS011;14253;44.840;10.444;2023-04-24T01:55:48;24.40;;;11.30;;
26620;SDS011;14253;44.840;10.444;2023-04-24T01:58:14;24.63;;;12.10;;
26620;SDS011;14253;44.840;10.444;2023-04-24T02:00:40;12.95;;;10.43;;
26620;SDS011;14253;44.840;10.444;2023-04-24T02:03:06;16.58;;;12.43;;
26620;SDS011;14253;44.840;10.444;2023-04-24T02:05:32;20.33;;;13.63;;
26620;SDS011;14253;44.840;10.444;2023-04-24T02:07:58;21.52;;;14.98;;
26620;SDS011;14253;44.840;10.444;2023-04-24T02:10:25;18.85;;;14.43;;
26620;SDS011;14253;44.840;10.444;2023-04-24T02:12:50;24.23;;;16.30;;
26620;SDS011;14253;44.840;10.444;2023-04-24T02:15:16;22.55;;;14.98;;
26620;SDS011;14253;44.840;10.444;2023-04-24T02:17:43;22.80;;;15.05;;
26620;SDS011;14253;44.840;10.444;2023-04-24T02:20:09;24.55;;;16.58;;
26620;SDS011;14253;44.840;10.444;2023-04-24T02:22:37;23.45;;;16.13;;
26620;SDS011;14253;44.840;10.444;2023-04-24T02:25:03;20.38;;;15.43;;
26620;SDS011;14253;44.840;10.444;2023-04-24T02:27:30;24.17;;;16.60;;
26620;SDS011;14253;44.840;10.444;2023-04-24T02:29:56;23.08;;;17.20;;
26620;SDS011;14253;44.840;10.444;2023-04-24T02:32:22;29.27;;;18.73;;
26620;SDS011;14253;44.840;10.444;2023-04-24T02:34:48;26.38;;;18.10;;
26620;SDS011;14253;44.840;10.444;2023-04-24T02:37:14;27.20;;;19.55;;
26620;SDS011;14253;44.840;10.444;2023-04-24T02:39:40;24.67;;;19.05;;
26620;SDS011;14253;44.840;10.444;2023-04-24T02:42:06;23.42;;;17.08;;
26620;SDS011;14253;44.840;10.444;2023-04-24T02:44:34;25.05;;;18.25;;
26620;SDS011;14253;44.840;10.444;2023-04-24T02:47:00;23.65;;;18.55;;
26620;SDS011;14253;44.840;10.444;2023-04-24T02:49:26;25.17;;;18.33;;
26620;SDS011;14253;44.840;10.444;2023-04-24T02:51:52;22.25;;;16.48;;
26620;SDS011;14253;44.840;10.444;2023-04-24T02:54:18;21.70;;;16.70;;
26620;SDS011;14253;44.840;10.444;2023-04-24T02:56:44;23.90;;;16.15;;
26620;SDS011;14253;44.840;10.444;2023-04-24T02:59:10;21.27;;;14.60;;
26620;SDS011;14253;44.840;10.444;2023-04-24T03:01:36;25.52;;;16.02;;
26620;SDS011;14253;44.840;10.444;2023-04-24T03:04:02;22.80;;;14.65;;
26620;SDS011;14253;44.840;10.444;2023-04-24T03:06:29;20.17;;;14.52;;
26620;SDS011;14253;44.840;10.444;2023-04-24T03:08:56;22.20;;;14.40;;
26620;SDS011;14253;44.840;10.444;2023-04-24T03:11:22;18.48;;;13.75;;
26620;SDS011;14253;44.840;10.444;2023-04-24T03:13:48;17.88;;;14.15;;
26620;SDS011;14253;44.840;10.444;2023-04-24T03:16:14;19.65;;;13.82;;
26620;SDS011;14253;44.840;10.444;2023-04-24T03:18:40;18.65;;;13.80;;
26620;SDS011;14253;44.840;10.444;2023-04-24T03:21:07;18.95;;;14.05;;
26620;SDS011;14253;44.840;10.444;2023-04-24T03:23:33;21.35;;;14.05;;
26620;SDS011;14253;44.840;10.444;2023-04-24T03:25:59;16.15;;;12.88;;
26620;SDS011;14253;44.840;10.444;2023-04-24T03:28:25;17.60;;;14.07;;
26620;SDS011;14253;44.840;10.444;2023-04-24T03:30:58;16.17;;;13.13;;
26620;SDS011;14253;44.840;10.444;2023-04-24T03:33:28;18.05;;;13.57;;
26620;SDS011;14253;44.840;10.444;2023-04-24T03:35:59;20.52;;;12.70;;
26620;SDS011;14253;44.840;10.444;2023-04-24T03:38:35;16.17;;;12.77;;
26620;SDS011;14253;44.840;10.444;2023-04-24T03:41:24;15.38;;;11.82;;
26620;SDS011;14253;44.840;10.444;2023-04-24T03:44:00;17.35;;;12.10;;
26620;SDS011;14253;44.840;10.444;2023-04-24T03:46:26;14.85;;;11.38;;
26620;SDS011;14253;44.840;10.444;2023-04-24T03:48:56;16.73;;;11.15;;
26620;SDS011;14253;44.840;10.444;2023-04-24T03:51:27;14.60;;;10.88;;
26620;SDS011;14253;44.840;10.444;2023-04-24T03:53:57;20.20;;;11.40;;
26620;SDS011;14253;44.840;10.444;2023-04-24T03:56:26;14.88;;;11.90;;
26620;SDS011;14253;44.840;10.444;2023-04-24T03:58:52;18.83;;;11.82;;
26620;SDS011;14253;44.840;10.444;2023-04-24T04:01:18;14.55;;;12.00;;
26620;SDS011;14253;44.840;10.444;2023-04-24T04:04:11;16.35;;;11.70;;
26620;SDS011;14253;44.840;10.444;2023-04-24T04:06:38;17.27;;;12.70;;
26620;SDS011;14253;44.840;10.444;2023-04-24T04:09:05;19.90;;;12.20;;
26620;SDS011;14253;44.840;10.444;2023-04-24T04:11:35;23.52;;;13.98;;
26620;SDS011;14253;44.840;10.444;2023-04-24T04:14:01;17.40;;;13.32;;
26620;SDS011;14253;44.840;10.444;2023-04-24T04:16:27;22.42;;;13.73;;
26620;SDS011;14253;44.840;10.444;2023-04-24T04:19:00;19.50;;;13.65;;
26620;SDS011;14253;44.840;10.444;2023-04-24T04:21:26;21.25;;;14.27;;
26620;SDS011;14253;44.840;10.444;2023-04-24T04:24:01;17.05;;;12.57;;
26620;SDS011;14253;44.840;10.444;2023-04-24T04:29:09;16.88;;;12.50;;
26620;SDS011;14253;44.840;10.444;2023-04-24T04:31:39;18.88;;;13.55;;
26620;SDS011;14253;44.840;10.444;2023-04-24T04:34:09;19.35;;;13.55;;
26620;SDS011;14253;44.840;10.444;2023-04-24T04:36:37;17.25;;;13.43;;
26620;SDS011;14253;44.840;10.444;2023-04-24T04:39:40;17.73;;;12.60;;
26620;SDS011;14253;44.840;10.444;2023-04-24T04:42:15;19.15;;;13.98;;
26620;SDS011;14253;44.840;10.444;2023-04-24T04:44:43;19.92;;;13.82;;
26620;SDS011;14253;44.840;10.444;2023-04-24T04:47:15;17.00;;;13.25;;
26620;SDS011;14253;44.840;10.444;2023-04-24T04:49:43;18.63;;;13.35;;
26620;SDS011;14253;44.840;10.444;2023-04-24T04:52:16;17.73;;;12.93;;
26620;SDS011;14253;44.840;10.444;2023-04-24T04:54:44;17.40;;;13.05;;
26620;SDS011;14253;44.840;10.444;2023-04-24T04:57:11;18.70;;;13.85;;
26620;SDS011;14253;44.840;10.444;2023-04-24T04:59:40;17.13;;;13.90;;
26620;SDS011;14253;44.840;10.444;2023-04-24T05:02:12;22.13;;;13.13;;
26620;SDS011;14253;44.840;10.444;2023-04-24T05:04:43;17.88;;;12.68;;
26620;SDS011;14253;44.840;10.444;2023-04-24T05:07:11;21.83;;;12.90;;
26620;SDS011;14253;44.840;10.444;2023-04-24T05:09:43;17.48;;;14.00;;
26620;SDS011;14253;44.840;10.444;2023-04-24T05:12:30;20.80;;;12.90;;
26620;SDS011;14253;44.840;10.444;2023-04-24T05:15:15;18.23;;;12.27;;
26620;SDS011;14253;44.840;10.444;2023-04-24T05:17:59;21.08;;;13.60;;
26620;SDS011;14253;44.840;10.444;2023-04-24T05:20:46;16.88;;;11.23;;
26620;SDS011;14253;44.840;10.444;2023-04-24T05:23:31;18.35;;;13.20;;
26620;SDS011;14253;44.840;10.444;2023-04-24T05:26:18;17.63;;;14.43;;
26620;SDS011;14253;44.840;10.444;2023-04-24T05:29:02;19.63;;;13.85;;
26620;SDS011;14253;44.840;10.444;2023-04-24T05:31:44;24.38;;;15.00;;
26620;SDS011;14253;44.840;10.444;2023-04-24T05:34:11;19.80;;;14.10;;
26620;SDS011;14253;44.840;10.444;2023-04-24T05:36:40;21.15;;;13.32;;
26620;SDS011;14253;44.840;10.444;2023-04-24T05:39:08;18.33;;;14.25;;
26620;SDS011;14253;44.840;10.444;2023-04-24T05:41:34;18.92;;;13.55;;
26620;SDS011;14253;44.840;10.444;2023-04-24T05:44:00;16.25;;;13.15;;
26620;SDS011;14253;44.840;10.444;2023-04-24T05:46:26;18.42;;;13.65;;
26620;SDS011;14253;44.840;10.444;2023-04-24T05:48:52;18.17;;;13.65;;
26620;SDS011;14253;44.840;10.444;2023-04-24T05:51:18;18.00;;;14.48;;
26620;SDS011;14253;44.840;10.444;2023-04-24T05:53:44;24.17;;;14.20;;
26620;SDS011;14253;44.840;10.444;2023-04-24T05:56:10;22.23;;;14.65;;
26620;SDS011;14253;44.840;10.444;2023-04-24T05:58:37;23.52;;;14.93;;
26620;SDS011;14253;44.840;10.444;2023-04-24T06:01:04;22.13;;;14.77;;
26620;SDS011;14253;44.840;10.444;2023-04-24T06:03:30;22.98;;;14.27;;
26620;SDS011;14253;44.840;10.444;2023-04-24T06:05:56;23.42;;;14.73;;
26620;SDS011;14253;44.840;10.444;2023-04-24T06:08:25;20.73;;;14.93;;
26620;SDS011;14253;44.840;10.444;2023-04-24T06:10:51;21.70;;;16.67;;
26620;SDS011;14253;44.840;10.444;2023-04-24T06:13:19;23.65;;;15.90;;
26620;SDS011;14253;44.840;10.444;2023-04-24T06:16:11;19.50;;;15.25;;
26620;SDS011;14253;44.840;10.444;2023-04-24T06:18:40;21.38;;;14.02;;
26620;SDS011;14253;44.840;10.444;2023-04-24T06:21:06;19.83;;;14.48;;
26620;SDS011;14253;44.840;10.444;2023-04-24T06:23:32;18.80;;;14.65;;
26620;SDS011;14253;44.840;10.444;2023-04-24T06:25:58;19.95;;;13.40;;
26620;SDS011;14253;44.840;10.444;2023-04-24T06:28:25;18.90;;;13.48;;
26620;SDS011;14253;44.840;10.444;2023-04-24T06:30:51;20.05;;;12.13;;
26620;SDS011;14253;44.840;10.444;2023-04-24T06:33:17;13.50;;;11.45;;
26620;SDS011;14253;44.840;10.444;2023-04-24T06:35:43;16.52;;;12.32;;
26620;SDS011;14253;44.840;10.444;2023-04-24T06:38:09;19.65;;;12.02;;
26620;SDS011;14253;44.840;10.444;2023-04-24T06:40:35;15.35;;;11.77;;
26620;SDS011;14253;44.840;10.444;2023-04-24T06:43:01;14.88;;;11.65;;
26620;SDS011;14253;44.840;10.444;2023-04-24T06:45:28;16.10;;;12.13;;
26620;SDS011;14253;44.840;10.444;2023-04-24T06:47:55;15.32;;;11.07;;
26620;SDS011;14253;44.840;10.444;2023-04-24T06:50:21;13.43;;;10.95;;
26620;SDS011;14253;44.840;10.444;2023-04-24T06:52:47;13.00;;;9.85;;
26620;SDS011;14253;44.840;10.444;2023-04-24T06:55:13;14.63;;;9.43;;
26620;SDS011;14253;44.840;10.444;2023-04-24T06:57:42;12.63;;;9.95;;
26620;SDS011;14253;44.840;10.444;2023-04-24T07:00:09;10.82;;;8.65;;
26620;SDS011;14253;44.840;10.444;2023-04-24T07:02:36;10.98;;;8.48;;
26620;SDS011;14253;44.840;10.444;2023-04-24T07:05:03;11.95;;;8.25;;
26620;SDS011;14253;44.840;10.444;2023-04-24T07:07:30;14.50;;;9.10;;
26620;SDS011;14253;44.840;10.444;2023-04-24T07:10:00;9.80;;;7.95;;
26620;SDS011;14253;44.840;10.444;2023-04-24T07:12:26;12.80;;;7.85;;
26620;SDS011;14253;44.840;10.444;2023-04-24T07:14:51;11.98;;;7.97;;
26620;SDS011;14253;44.840;10.444;2023-04-24T07:17:17;11.73;;;7.85;;
26620;SDS011;14253;44.840;10.444;2023-04-24T07:19:43;10.68;;;6.97;;
26620;SDS011;14253;44.840;10.444;2023-04-24T07:22:09;11.90;;;7.47;;
26620;SDS011;14253;44.840;10.444;2023-04-24T07:24:42;9.38;;;6.78;;
26620;SDS011;14253;44.840;10.444;2023-04-24T07:27:09;9.05;;;6.85;;
26620;SDS011;14253;44.840;10.444;2023-04-24T07:29:35;9.95;;;6.90;;
26620;SDS011;14253;44.840;10.444;2023-04-24T07:32:00;9.20;;;7.13;;
26620;SDS011;14253;44.840;10.444;2023-04-24T07:34:26;8.40;;;5.90;;
26620;SDS011;14253;44.840;10.444;2023-04-24T07:36:52;8.05;;;5.70;;
26620;SDS011;14253;44.840;10.444;2023-04-24T07:39:18;11.13;;;6.55;;
26620;SDS011;14253;44.840;10.444;2023-04-24T07:41:44;9.13;;;5.72;;
26620;SDS011;14253;44.840;10.444;2023-04-24T07:44:10;9.00;;;5.95;;
26620;SDS011;14253;44.840;10.444;2023-04-24T07:46:36;9.52;;;6.25;;
26620;SDS011;14253;44.840;10.444;2023-04-24T07:49:02;11.05;;;6.43;;
26620;SDS011;14253;44.840;10.444;2023-04-24T07:51:29;15.02;;;7.85;;
26620;SDS011;14253;44.840;10.444;2023-04-24T07:53:56;10.38;;;7.32;;
26620;SDS011;14253;44.840;10.444;2023-04-24T07:56:22;16.13;;;8.07;;
26620;SDS011;14253;44.840;10.444;2023-04-24T07:58:48;12.38;;;6.80;;
26620;SDS011;14253;44.840;10.444;2023-04-24T08:01:14;9.88;;;6.63;;
26620;SDS011;14253;44.840;10.444;2023-04-24T08:03:40;9.43;;;5.47;;
26620;SDS011;14253;44.840;10.444;2023-04-24T08:06:06;9.32;;;5.60;;
26620;SDS011;14253;44.840;10.444;2023-04-24T08:08:32;8.15;;;6.22;;
26620;SDS011;14253;44.840;10.444;2023-04-24T08:10:58;8.30;;;5.68;;
26620;SDS011;14253;44.840;10.444;2023-04-24T08:13:24;8.52;;;5.28;;
26620;SDS011;14253;44.840;10.444;2023-04-24T08:15:50;7.13;;;6.07;;
26620;SDS011;14253;44.840;10.444;2023-04-24T08:18:16;8.30;;;5.68;;
26620;SDS011;14253;44.840;10.444;2023-04-24T08:20:42;7.50;;;5.82;;
26620;SDS011;14253;44.840;10.444;2023-04-24T08:23:08;8.32;;;5.50;;
26620;SDS011;14253;44.840;10.444;2023-04-24T08:25:34;10.70;;;6.22;;
26620;SDS011;14253;44.840;10.444;2023-04-24T08:28:01;9.32;;;5.32;;
26620;SDS011;14253;44.840;10.444;2023-04-24T08:30:29;8.50;;;6.00;;
26620;SDS011;14253;44.840;10.444;2023-04-24T08:32:55;10.05;;;6.22;;
26620;SDS011;14253;44.840;10.444;2023-04-24T08:35:22;10.02;;;6.43;;
26620;SDS011;14253;44.840;10.444;2023-04-24T08:37:48;10.13;;;6.60;;
26620;SDS011;14253;44.840;10.444;2023-04-24T08:40:15;8.98;;;5.68;;
26620;SDS011;14253;44.840;10.444;2023-04-24T08:42:44;8.60;;;6.20;;
26620;SDS011;14253;44.840;10.444;2023-04-24T08:45:11;9.02;;;6.50;;
26620;SDS011;14253;44.840;10.444;2023-04-24T08:47:41;11.63;;;5.88;;
26620;SDS011;14253;44.840;10.444;2023-04-24T08:50:08;9.02;;;6.00;;
26620;SDS011;14253;44.840;10.444;2023-04-24T08:52:36;12.30;;;6.30;;
26620;SDS011;14253;44.840;10.444;2023-04-24T08:55:02;10.02;;;6.65;;
26620;SDS011;14253;44.840;10.444;2023-04-24T08:57:28;12.10;;;6.38;;
26620;SDS011;14253;44.840;10.444;2023-04-24T08:59:56;9.23;;;6.05;;
26620;SDS011;14253;44.840;10.444;2023-04-24T09:02:25;12.68;;;6.50;;
26620;SDS011;14253;44.840;10.444;2023-04-24T09:04:52;9.10;;;6.22;;
26620;SDS011;14253;44.840;10.444;2023-04-24T09:07:19;13.55;;;6.65;;
26620;SDS011;14253;44.840;10.444;2023-04-24T09:09:47;10.65;;;6.07;;
26620;SDS011;14253;44.840;10.444;2023-04-24T09:12:15;11.00;;;7.53;;
26620;SDS011;14253;44.840;10.444;2023-04-24T09:14:42;10.25;;;6.28;;
26620;SDS011;14253;44.840;10.444;2023-04-24T09:17:10;8.65;;;6.28;;
26620;SDS011;14253;44.840;10.444;2023-04-24T09:19:37;10.90;;;6.18;;
26620;SDS011;14253;44.840;10.444;2023-04-24T09:22:06;8.32;;;6.05;;
26620;SDS011;14253;44.840;10.444;2023-04-24T09:24:33;7.68;;;5.43;;
26620;SDS011;14253;44.840;10.444;2023-04-24T09:27:00;8.18;;;5.75;;
26620;SDS011;14253;44.840;10.444;2023-04-24T09:29:27;11.52;;;6.25;;
26620;SDS011;14253;44.840;10.444;2023-04-24T09:31:54;8.77;;;6.35;;
26620;SDS011;14253;44.840;10.444;2023-04-24T09:34:21;12.60;;;6.53;;
26620;SDS011;14253;44.840;10.444;2023-04-24T09:36:49;9.50;;;6.15;;
26620;SDS011;14253;44.840;10.444;2023-04-24T09:39:16;9.75;;;6.57;;
26620;SDS011;14253;44.840;10.444;2023-04-24T09:41:46;11.18;;;5.95;;
26620;SDS011;14253;44.840;10.444;2023-04-24T09:44:17;9.95;;;6.40;;
26620;SDS011;14253;44.840;10.444;2023-04-24T09:46:54;9.35;;;6.55;;
26620;SDS011;14253;44.840;10.444;2023-04-24T09:49:25;7.38;;;6.40;;
26620;SDS011;14253;44.840;10.444;2023-04-24T09:52:02;9.70;;;6.27;;
26620;SDS011;14253;44.840;10.444;2023-04-24T09:54:32;10.10;;;6.53;;
26620;SDS011;14253;44.840;10.444;2023-04-24T09:56:58;12.98;;;6.03;;
26620;SDS011;14253;44.840;10.444;2023-04-24T09:59:27;9.85;;;6.63;;
26620;SDS011;14253;44.840;10.444;2023-04-24T10:01:54;7.57;;;4.70;;
26620;SDS011;14253;44.840;10.444;2023-04-24T10:04:23;6.45;;;4.53;;
26620;SDS011;14253;44.840;10.444;2023-04-24T10:06:55;8.97;;;4.13;;
26620;SDS011;14253;44.840;10.444;2023-04-24T10:09:23;7.33;;;4.87;;
26620;SDS011;14253;44.840;10.444;2023-04-24T10:11:51;7.63;;;4.90;;
26620;SDS011;14253;44.840;10.444;2023-04-24T10:14:24;5.20;;;4.53;;
26620;SDS011;14253;44.840;10.444;2023-04-24T10:16:52;8.32;;;5.03;;
26620;SDS011;14253;44.840;10.444;2023-04-24T10:19:19;7.18;;;4.63;;
26620;SDS011;14253;44.840;10.444;2023-04-24T10:21:46;5.47;;;4.40;;
26620;SDS011;14253;44.840;10.444;2023-04-24T10:24:16;5.97;;;4.40;;
26620;SDS011;14253;44.840;10.444;2023-04-24T10:26:43;6.35;;;4.78;;
26620;SDS011;14253;44.840;10.444;2023-04-24T10:29:11;8.23;;;5.00;;
26620;SDS011;14253;44.840;10.444;2023-04-24T10:31:38;6.70;;;5.10;;
26620;SDS011;14253;44.840;10.444;2023-04-24T10:34:08;8.25;;;5.03;;
26620;SDS011;14253;44.840;10.444;2023-04-24T10:36:35;6.97;;;5.53;;
26620;SDS011;14253;44.840;10.444;2023-04-24T10:39:06;4.95;;;4.32;;
26620;SDS011;14253;44.840;10.444;2023-04-24T10:41:36;5.93;;;4.28;;
26620;SDS011;14253;44.840;10.444;2023-04-24T10:44:10;5.88;;;4.13;;
26620;SDS011;14253;44.840;10.444;2023-04-24T10:46:37;5.35;;;4.50;;
26620;SDS011;14253;44.840;10.444;2023-04-24T10:49:04;5.22;;;4.00;;
26620;SDS011;14253;44.840;10.444;2023-04-24T10:57:42;7.50;;;4.93;;
26620;SDS011;14253;44.840;10.444;2023-04-24T10:59:43;6.80;;;4.43;;
26620;SDS011;14253;44.840;10.444;2023-04-24T11:02:09;6.55;;;4.50;;
26620;SDS011;14253;44.840;10.444;2023-04-24T11:04:35;6.05;;;4.15;;
26620;SDS011;14253;44.840;10.444;2023-04-24T11:07:04;4.80;;;4.10;;
26620;SDS011;14253;44.840;10.444;2023-04-24T11:09:30;6.97;;;4.15;;
26620;SDS011;14253;44.840;10.444;2023-04-24T11:12:07;5.35;;;4.07;;
26620;SDS011;14253;44.840;10.444;2023-04-24T11:17:35;5.00;;;4.43;;
26620;SDS011;14253;44.840;10.444;2023-04-24T11:20:04;5.50;;;4.07;;
26620;SDS011;14253;44.840;10.444;2023-04-24T11:22:35;5.80;;;4.40;;
26620;SDS011;14253;44.840;10.444;2023-04-24T11:25:02;5.10;;;3.47;;
26620;SDS011;14253;44.840;10.444;2023-04-24T11:27:31;6.93;;;3.78;;
26620;SDS011;14253;44.840;10.444;2023-04-24T11:30:03;4.85;;;3.40;;
26620;SDS011;14253;44.840;10.444;2023-04-24T11:35:06;6.07;;;3.97;;
26620;SDS011;14253;44.840;10.444;2023-04-24T11:37:45;4.45;;;2.58;;
26620;SDS011;14253;44.840;10.444;2023-04-24T11:40:16;2.92;;;2.58;;
26620;SDS011;14253;44.840;10.444;2023-04-24T11:42:49;3.65;;;2.35;;
26620;SDS011;14253;44.840;10.444;2023-04-24T11:45:18;5.40;;;4.35;;
26620;SDS011;14253;44.840;10.444;2023-04-24T11:47:48;6.75;;;3.95;;
26620;SDS011;14253;44.840;10.444;2023-04-24T11:50:15;5.28;;;4.00;;
26620;SDS011;14253;44.840;10.444;2023-04-24T11:52:46;5.32;;;3.97;;
26620;SDS011;14253;44.840;10.444;2023-04-24T11:57:43;6.53;;;4.60;;
26620;SDS011;14253;44.840;10.444;2023-04-24T12:00:17;7.45;;;4.10;;
26620;SDS011;14253;44.840;10.444;2023-04-24T12:02:48;5.30;;;4.72;;
26620;SDS011;14253;44.840;10.444;2023-04-24T12:07:54;7.22;;;4.82;;
26620;SDS011;14253;44.840;10.444;2023-04-24T12:10:20;3.95;;;3.55;;
26620;SDS011;14253;44.840;10.444;2023-04-24T12:15:18;6.47;;;4.20;;
26620;SDS011;14253;44.840;10.444;2023-04-24T12:17:45;4.28;;;3.80;;
26620;SDS011;14253;44.840;10.444;2023-04-24T12:20:11;4.82;;;3.60;;
26620;SDS011;14253;44.840;10.444;2023-04-24T12:25:21;3.97;;;3.40;;
26620;SDS011;14253;44.840;10.444;2023-04-24T12:27:55;7.57;;;4.40;;
26620;SDS011;14253;44.840;10.444;2023-04-24T12:30:47;4.55;;;3.70;;
26620;SDS011;14253;44.840;10.444;2023-04-24T12:33:20;5.00;;;4.40;;
26620;SDS011;14253;44.840;10.444;2023-04-24T12:35:47;6.50;;;4.75;;
26620;SDS011;14253;44.840;10.444;2023-04-24T12:38:21;5.25;;;4.25;;
26620;SDS011;14253;44.840;10.444;2023-04-24T12:41:05;5.15;;;4.65;;
26620;SDS011;14253;44.840;10.444;2023-04-24T12:43:32;6.15;;;4.72;;
26620;SDS011;14253;44.840;10.444;2023-04-24T12:45:59;10.85;;;4.47;;
26620;SDS011;14253;44.840;10.444;2023-04-24T12:48:28;5.57;;;4.88;;
26620;SDS011;14253;44.840;10.444;2023-04-24T12:50:54;5.38;;;4.88;;
26620;SDS011;14253;44.840;10.444;2023-04-24T12:53:28;4.57;;;4.10;;
26620;SDS011;14253;44.840;10.444;2023-04-24T12:55:56;4.88;;;4.18;;
26620;SDS011;14253;44.840;10.444;2023-04-24T12:58:22;4.88;;;4.25;;
26620;SDS011;14253;44.840;10.444;2023-04-24T13:00:49;5.00;;;4.13;;
26620;SDS011;14253;44.840;10.444;2023-04-24T13:03:15;5.75;;;4.07;;
26620;SDS011;14253;44.840;10.444;2023-04-24T13:05:41;6.60;;;4.15;;
26620;SDS011;14253;44.840;10.444;2023-04-24T13:08:08;7.22;;;4.40;;
26620;SDS011;14253;44.840;10.444;2023-04-24T13:10:34;5.95;;;4.57;;
26620;SDS011;14253;44.840;10.444;2023-04-24T13:13:00;4.95;;;4.45;;
26620;SDS011;14253;44.840;10.444;2023-04-24T13:15:26;6.55;;;4.22;;
26620;SDS011;14253;44.840;10.444;2023-04-24T13:17:52;4.18;;;3.78;;
26620;SDS011;14253;44.840;10.444;2023-04-24T13:20:18;7.40;;;3.70;;
26620;SDS011;14253;44.840;10.444;2023-04-24T13:22:46;5.50;;;3.75;;
26620;SDS011;14253;44.840;10.444;2023-04-24T13:25:12;6.43;;;4.55;;
26620;SDS011;14253;44.840;10.444;2023-04-24T13:27:42;4.60;;;3.53;;
26620;SDS011;14253;44.840;10.444;2023-04-24T13:30:08;4.97;;;3.35;;
26620;SDS011;14253;44.840;10.444;2023-04-24T13:32:37;6.47;;;4.40;;
26620;SDS011;14253;44.840;10.444;2023-04-24T13:35:03;4.18;;;3.78;;
26620;SDS011;14253;44.840;10.444;2023-04-24T13:37:29;6.28;;;4.07;;
26620;SDS011;14253;44.840;10.444;2023-04-24T13:39:55;4.13;;;3.70;;
26620;SDS011;14253;44.840;10.444;2023-04-24T13:42:21;5.63;;;4.28;;
26620;SDS011;14253;44.840;10.444;2023-04-24T13:44:47;3.95;;;3.35;;
26620;SDS011;14253;44.840;10.444;2023-04-24T13:47:13;4.22;;;3.58;;
26620;SDS011;14253;44.840;10.444;2023-04-24T13:49:39;4.25;;;3.58;;
26620;SDS011;14253;44.840;10.444;2023-04-24T13:52:05;6.13;;;3.25;;
26620;SDS011;14253;44.840;10.444;2023-04-24T13:54:31;4.95;;;4.45;;
26620;SDS011;14253;44.840;10.444;2023-04-24T13:56:57;7.18;;;4.40;;
26620;SDS011;14253;44.840;10.444;2023-04-24T13:59:23;7.43;;;5.50;;
26620;SDS011;14253;44.840;10.444;2023-04-24T14:01:50;5.18;;;4.68;;
26620;SDS011;14253;44.840;10.444;2023-04-24T14:04:16;4.95;;;3.92;;
26620;SDS011;14253;44.840;10.444;2023-04-24T14:06:43;5.80;;;4.57;;
26620;SDS011;14253;44.840;10.444;2023-04-24T14:09:09;5.85;;;4.25;;
26620;SDS011;14253;44.840;10.444;2023-04-24T14:11:35;6.00;;;4.78;;
26620;SDS011;14253;44.840;10.444;2023-04-24T14:14:01;4.30;;;3.45;;
26620;SDS011;14253;44.840;10.444;2023-04-24T14:16:27;3.72;;;3.40;;
26620;SDS011;14253;44.840;10.444;2023-04-24T14:18:53;4.05;;;3.45;;
26620;SDS011;14253;44.840;10.444;2023-04-24T14:21:20;4.63;;;4.00;;
26620;SDS011;14253;44.840;10.444;2023-04-24T14:23:46;5.90;;;3.88;;
26620;SDS011;14253;44.840;10.444;2023-04-24T14:26:12;5.53;;;3.50;;
26620;SDS011;14253;44.840;10.444;2023-04-24T14:28:41;3.90;;;3.50;;
26620;SDS011;14253;44.840;10.444;2023-04-24T14:31:07;3.70;;;3.40;;
26620;SDS011;14253;44.840;10.444;2023-04-24T14:33:34;5.95;;;4.28;;
26620;SDS011;14253;44.840;10.444;2023-04-24T14:36:00;4.15;;;3.67;;
26620;SDS011;14253;44.840;10.444;2023-04-24T14:38:28;6.88;;;4.20;;
26620;SDS011;14253;44.840;10.444;2023-04-24T14:40:55;4.53;;;3.95;;
26620;SDS011;14253;44.840;10.444;2023-04-24T14:43:21;4.32;;;2.97;;
26620;SDS011;14253;44.840;10.444;2023-04-24T14:45:47;6.07;;;3.60;;
26620;SDS011;14253;44.840;10.444;2023-04-24T14:48:13;3.38;;;3.00;;
26620;SDS011;14253;44.840;10.444;2023-04-24T14:50:39;5.95;;;3.53;;
26620;SDS011;14253;44.840;10.444;2023-04-24T14:53:05;4.95;;;3.45;;